Blackfish, Arkansas
Current Conditions -  °F | °C
As of 9:53 AM on Monday 26 Jan 2015 (Local Time) from KAWM Reporting Station
Overcast Overcast  
Wind Chill: 34°   Ceiling: 2200
Heat Index: 39°   Visibility: 10mi
Dew Point: 32°   Wind: 7mph
Humidity: 76%   Direction: 300°WNW
Pressure: 30.13"   Gusts: NA
Location:  35.0663°N, 90.4665°W
Report Text: KAWM 261553Z AUTO 30006KT 10SM OVC022 04/00 A3013 RMK AO2 SLP203 T00390000
Loading
Personal Weather Stations






























Interactive Weather Map New forecast layout! Learn more

10-Day Weather Forecast

Advertisements
Track Severe Weather on mobile